Time;durP1;ratioP1;P1;durP2;ratioP2;P2;SDS_P1;SDS_P2;PMS_P1;PMS_P2;Temp;Humidity;BMP_temperature;BMP_pressure;BME280_temperature;BME280_humidity;BME280_pressure;Samples;Min_cycle;Max_cycle;Signal;HPM_P1;HPM_P2
2021/07/20 00:00:20;;;;;;;23.37;10.67;;;;;;;20.74;58.74;98744.16;125664;1093;103079;-70
2021/07/20 00:03:13;;;;;;;21.47;10.97;;;;;;;20.72;58.79;98745.38;125727;1093;103400;-70
2021/07/20 00:05:42;;;;;;;;;;;;;;;20.70;58.89;98744.72;125733;1093;103001;-70
2021/07/20 00:08:14;;;;;;;23.80;10.33;;;;;;;20.65;58.73;98746.11;125661;1093;102941;-71
2021/07/20 00:10:51;;;;;;;23.23;11.23;;;;;;;20.62;58.87;98738.38;125733;1093;102939;-71
2021/07/20 00:13:25;;;;;;;23.37;10.47;;;;;;;20.60;58.76;98737.72;125683;1093;103004;-70
2021/07/20 00:15:55;;;;;;;;;;;;;;;20.56;58.96;98739.11;125756;1093;102913;-70
2021/07/20 00:18:35;;;;;;;22.37;10.77;;;;;;;20.54;58.82;98743.86;125698;1093;103007;-71
2021/07/20 00:21:09;;;;;;;21.70;10.47;;;;;;;20.53;58.76;98744.88;125671;1093;103087;-71
2021/07/20 00:23:37;;;;;;;23.50;10.50;;;;;;;20.49;58.78;98730.91;125731;1096;102941;-71
2021/07/20 00:26:09;;;;;;;23.93;11.17;;;;;;;20.48;58.77;98745.44;125695;1095;102969;-71
2021/07/20 00:28:42;;;;;;;21.63;10.67;;;;;;;20.44;58.80;98738.72;125702;1097;102916;-72
2021/07/20 00:31:10;;;;;;;27.43;11.00;;;;;;;20.43;58.81;98750.55;125708;1095;103008;-71
2021/07/20 00:33:43;;;;;;;22.03;10.88;;;;;;;20.42;59.05;98748.88;125702;1095;102991;-70
2021/07/20 00:36:11;;;;;;;25.33;10.87;;;;;;;20.40;58.92;98752.76;125739;1095;102938;-71
2021/07/20 00:38:39;;;;;;;21.23;10.47;;;;;;;20.40;58.77;98750.06;125689;1095;103373;-71
2021/07/20 00:41:08;;;;;;;21.07;10.60;;;;;;;20.38;59.01;98745.68;125749;1096;102946;-71
2021/07/20 00:43:41;;;;;;;21.15;10.30;;;;;;;20.37;59.10;98748.58;125671;1095;103012;-73
2021/07/20 00:46:09;;;;;;;26.37;11.47;;;;;;;20.36;58.84;98752.30;125694;1095;103001;-71
2021/07/20 00:48:38;;;;;;;21.80;10.70;;;;;;;20.34;59.02;98748.94;125728;1096;103035;-71
2021/07/20 00:51:06;;;;;;;23.67;10.50;;;;;;;20.32;59.06;98748.28;125733;1096;103068;-71
2021/07/20 00:53:39;;;;;;;22.93;10.90;;;;;;;20.30;59.17;98744.92;125727;1096;103009;-70
2021/07/20 00:56:07;;;;;;;23.43;10.80;;;;;;;20.28;59.01;98747.82;125717;1095;102913;-70
2021/07/20 00:58:41;;;;;;;24.87;10.93;;;;;;;20.28;59.12;98746.97;125675;1096;102916;-71
2021/07/20 01:01:12;;;;;;;23.97;10.73;;;;;;;20.27;59.17;98737.19;125660;1096;103055;-70
2021/07/20 01:03:45;;;;;;;23.43;10.20;;;;;;;20.25;59.14;98734.69;125637;1093;103046;-71
2021/07/20 01:06:18;;;;;;;21.67;10.53;;;;;;;20.24;59.56;98730.30;125711;1093;103025;-71
2021/07/20 01:08:49;;;;;;;24.03;10.90;;;;;;;20.22;59.16;98726.94;125550;1092;103021;-71
2021/07/20 01:11:26;;;;;;;23.03;11.63;;;;;;;20.18;59.29;98728.33;125618;1093;103070;-71
2021/07/20 01:14:04;;;;;;;23.20;11.30;;;;;;;20.17;59.49;98727.50;125708;1096;103083;-71
2021/07/20 01:16:34;;;;;;;26.00;10.67;;;;;;;20.17;59.34;98729.34;125697;1093;102916;-70
2021/07/20 01:19:12;;;;;;;24.13;10.57;;;;;;;20.16;59.50;98724.97;125740;1095;103364;-71
2021/07/20 01:21:46;;;;;;;25.77;12.13;;;;;;;20.15;59.32;98725.98;125821;1093;102916;-71
2021/07/20 01:24:20;;;;;;;23.17;10.60;;;;;;;20.14;59.36;98722.47;125795;1093;103076;-71
2021/07/20 01:26:53;;;;;;;22.70;10.20;;;;;;;20.12;59.55;98716.41;125764;1093;102917;-71
2021/07/20 01:29:27;;;;;;;;;;;;;;;20.11;59.48;98722.83;125751;1093;103034;-71
2021/07/20 01:32:01;;;;;;;;;;;;;;;20.08;59.53;98721.31;125816;1093;103038;-72
2021/07/20 01:34:41;;;;;;;23.33;9.87;;;;;;;20.07;59.35;98722.33;125815;1093;103060;-72
2021/07/20 01:37:16;;;;;;;25.73;10.47;;;;;;;20.05;59.70;98720.84;125777;1091;103059;-71
2021/07/20 01:39:49;;;;;;;23.73;11.77;;;;;;;20.03;59.53;98720.19;125750;1093;103015;-71
2021/07/20 01:42:25;;;;;;;25.10;10.95;;;;;;;20.01;59.46;98725.75;125748;1092;103070;-71
2021/07/20 01:44:59;;;;;;;22.10;10.90;;;;;;;20.00;59.59;98723.25;125719;1093;103013;-71
2021/07/20 01:47:32;;;;;;;25.57;12.00;;;;;;;19.99;59.56;98726.97;125717;1093;102915;-70
2021/07/20 01:50:06;;;;;;;24.60;10.67;;;;;;;19.97;59.44;98729.00;125695;1093;102942;-70
2021/07/20 01:52:40;;;;;;;21.90;10.87;;;;;;;19.95;59.61;98729.20;125713;1093;102945;-73
2021/07/20 01:55:13;;;;;;;21.97;11.97;;;;;;;19.93;59.74;98732.06;125716;1093;103062;-71
2021/07/20 01:57:46;;;;;;;22.50;11.17;;;;;;;19.93;59.68;98732.06;125710;1093;102913;-72
2021/07/20 02:00:20;;;;;;;;;;;;;;;19.90;59.85;98740.52;125737;1093;102929;-70
2021/07/20 02:08:36;;;;;;;23.63;10.63;;;;;;;19.85;59.60;98764.47;125686;1096;103013;-71
2021/07/20 02:11:15;;;;;;;25.13;11.87;;;;;;;19.85;59.84;98771.75;125696;1095;102939;-70
2021/07/20 02:13:56;;;;;;;23.63;11.17;;;;;;;19.83;59.71;98780.00;126194;1095;103017;-71
2021/07/20 02:16:38;;;;;;;23.07;11.40;;;;;;;19.78;59.69;98779.70;125709;1093;103209;-70
2021/07/20 02:19:31;;;;;;;21.65;10.35;;;;;;;19.75;59.88;98778.20;125689;1093;102892;-70
2021/07/20 02:22:06;;;;;;;21.80;10.63;;;;;;;19.72;60.00;98781.26;126170;1092;102935;-71
2021/07/20 02:24:40;;;;;;;24.87;12.70;;;;;;;19.70;59.61;98777.89;125701;1093;102954;-71
2021/07/20 02:27:13;;;;;;;25.23;11.80;;;;;;;19.70;59.66;98774.38;125664;1093;103504;-71
2021/07/20 02:29:49;;;;;;;24.90;11.70;;;;;;;19.69;60.02;98778.09;125694;1093;103046;-72
2021/07/20 02:32:19;;;;;;;25.25;11.70;;;;;;;19.66;59.66;98776.57;125637;1093;102939;-71
2021/07/20 02:34:52;;;;;;;25.30;12.23;;;;;;;19.64;60.17;98773.20;125580;1093;102937;-71
2021/07/20 02:37:25;;;;;;;;;;;;;;;19.58;59.56;98772.07;125624;1093;103012;-70
2021/07/20 02:39:55;;;;;;;24.80;11.70;;;;;;;19.48;59.98;98771.45;125693;1093;103060;-70
2021/07/20 02:42:29;;;;;;;24.77;10.97;;;;;;;19.41;60.04;98765.07;125591;1095;103065;-71
2021/07/20 02:44:59;;;;;;;25.33;11.10;;;;;;;19.35;60.18;98769.32;125607;1095;102917;-70
2021/07/20 02:47:33;;;;;;;22.10;10.87;;;;;;;19.32;60.03;98777.77;125971;1094;102906;-71
2021/07/20 02:50:10;;;;;;;21.70;10.40;;;;;;;19.29;60.06;98764.63;127516;1096;100921;-72
2021/07/20 02:52:47;;;;;;;21.53;11.00;;;;;;;19.28;60.18;98768.34;125619;1095;103003;-71
2021/07/20 02:55:21;;;;;;;23.47;11.17;;;;;;;19.25;60.24;98766.84;125630;1096;103066;-69
2021/07/20 02:57:51;;;;;;;23.60;11.00;;;;;;;19.22;59.88;98772.59;125589;1093;102933;-70
2021/07/20 03:00:22;;;;;;;23.87;11.43;;;;;;;19.23;59.94;98768.02;125639;1093;103081;-71
2021/07/20 03:02:56;;;;;;;25.47;11.60;;;;;;;19.22;60.45;98763.64;125550;1093;102923;-71
2021/07/20 03:05:25;;;;;;;23.30;11.07;;;;;;;19.22;60.52;98769.89;125581;1094;103090;-72
2021/07/20 03:08:00;;;;;;;24.53;11.57;;;;;;;19.24;60.14;98770.56;125746;1096;103070;-71
2021/07/20 03:10:35;;;;;;;22.40;10.97;;;;;;;19.26;60.27;98775.76;125658;1096;103079;-71
2021/07/20 03:13:12;;;;;;;23.13;10.87;;;;;;;19.27;60.61;98775.60;125650;1096;103043;-72
2021/07/20 03:15:45;;;;;;;23.20;10.70;;;;;;;19.29;60.79;98778.11;125617;1095;103018;-71
2021/07/20 03:18:20;;;;;;;;;;;;;;;19.30;60.69;98777.95;125755;1096;103020;-72
2021/07/20 03:20:52;;;;;;;24.27;11.57;;;;;;;19.31;60.59;98781.47;125679;1096;102922;-71
2021/07/20 03:23:26;;;;;;;27.07;11.57;;;;;;;19.31;60.67;98785.02;125710;1097;103066;-69
2021/07/20 03:26:01;;;;;;;26.57;11.80;;;;;;;19.33;60.58;98784.84;125678;1095;102940;-70
2021/07/20 03:28:34;;;;;;;25.93;12.03;;;;;;;19.27;60.71;98783.69;125722;1096;103019;-70
2021/07/20 03:31:08;;;;;;;25.57;12.13;;;;;;;19.21;60.63;98783.53;125707;1095;102952;-70
2021/07/20 03:33:42;;;;;;;24.53;12.47;;;;;;;19.17;60.78;98785.75;125669;1095;102997;-70
2021/07/20 03:36:15;;;;;;;25.97;12.07;;;;;;;19.14;61.00;98788.79;125702;1096;103090;-69
2021/07/20 03:38:48;;;;;;;28.80;12.13;;;;;;;19.11;60.76;98787.30;125690;1095;103065;-72
2021/07/20 03:41:21;;;;;;;22.25;11.78;;;;;;;19.10;60.99;98782.06;125691;1096;103010;-70
2021/07/20 03:43:55;;;;;;;25.87;11.17;;;;;;;19.11;61.22;98778.35;125658;1096;103066;-71
2021/07/20 03:46:28;;;;;;;22.97;11.57;;;;;;;19.09;60.75;98770.45;125669;1094;102927;-71
2021/07/20 03:49:01;;;;;;;26.20;11.25;;;;;;;19.08;61.08;98768.77;125706;1096;102944;-70
2021/07/20 03:51:35;;;;;;;30.03;11.43;;;;;;;19.08;61.19;98771.47;125682;1096;103007;-70
2021/07/20 03:54:09;;;;;;;24.83;12.37;;;;;;;19.09;61.09;98775.84;125709;1096;103030;-71
2021/07/20 03:56:44;;;;;;;24.20;11.77;;;;;;;19.10;61.28;98787.45;125663;1096;103019;-71
2021/07/20 03:59:18;;;;;;;23.10;12.13;;;;;;;19.08;61.01;98784.95;125646;1096;103191;-71
2021/07/20 04:01:50;;;;;;;26.33;12.07;;;;;;;19.08;61.17;98786.78;125700;1096;102916;-71
2021/07/20 04:04:26;;;;;;;28.48;13.05;;;;;;;19.00;60.93;98788.48;125659;1095;102999;-73
2021/07/20 04:07:01;;;;;;;24.30;12.73;;;;;;;18.95;61.05;98782.73;125703;1096;103422;-70
2021/07/20 04:09:34;;;;;;;26.30;12.87;;;;;;;18.92;61.13;98783.11;125711;1096;103138;-71
2021/07/20 04:12:07;;;;;;;27.60;12.70;;;;;;;18.88;61.54;98782.59;125655;1095;103021;-71
2021/07/20 04:14:37;;;;;;;23.23;12.00;;;;;;;18.85;61.47;98782.11;125679;1096;102922;-72
2021/07/20 04:17:08;;;;;;;25.77;12.17;;;;;;;18.85;61.39;98784.81;125960;1094;102924;-70
2021/07/20 04:19:43;;;;;;;26.00;12.40;;;;;;;18.82;61.39;98788.67;125603;1094;102923;-70
2021/07/20 04:22:16;;;;;;;24.17;12.37;;;;;;;18.79;61.23;98791.70;125613;1095;103037;-71
2021/07/20 04:24:49;;;;;;;25.93;11.57;;;;;;;18.77;61.28;98787.52;125580;1095;103071;-69
2021/07/20 04:27:21;;;;;;;25.78;12.58;;;;;;;18.73;61.43;98795.11;125690;1095;103061;-71
2021/07/20 04:29:50;;;;;;;28.77;12.40;;;;;;;18.70;61.56;98793.58;125709;1095;103033;-71
2021/07/20 04:32:22;;;;;;;24.83;12.97;;;;;;;18.69;61.77;98799.16;125678;1095;103100;-70
2021/07/20 04:34:56;;;;;;;25.03;12.80;;;;;;;18.70;61.78;98796.28;125686;1096;103065;-71
2021/07/20 04:37:29;;;;;;;25.93;12.43;;;;;;;18.66;62.00;98797.63;125658;1095;102932;-69
2021/07/20 04:39:58;;;;;;;29.50;13.10;;;;;;;18.64;61.66;98799.65;126350;1095;102904;-70
2021/07/20 04:42:28;;;;;;;25.27;14.00;;;;;;;18.62;61.67;98796.28;125970;1096;103037;-70
2021/07/20 04:44:56;;;;;;;27.47;12.40;;;;;;;18.62;62.05;98807.06;125638;1094;103004;-71
2021/07/20 04:47:25;;;;;;;25.70;12.57;;;;;;;18.62;61.85;98806.23;125701;1095;102932;-70
2021/07/20 04:49:56;;;;;;;25.27;12.60;;;;;;;18.63;62.34;98802.53;125691;1096;103071;-72
2021/07/20 04:52:24;;;;;;;28.57;13.27;;;;;;;18.62;62.35;98803.54;125647;1096;102991;-70
2021/07/20 04:54:57;;;;;;;25.77;13.30;;;;;;;18.60;61.98;98804.55;125658;1094;102994;-70
2021/07/20 04:57:25;;;;;;;25.13;12.73;;;;;;;18.60;62.20;98796.47;125618;1095;102815;-73
2021/07/20 04:59:59;;;;;;;25.37;13.00;;;;;;;18.58;62.35;98808.41;125706;1096;103054;-70
2021/07/20 05:02:33;;;;;;;25.67;13.07;;;;;;;18.56;62.40;98805.89;125657;1096;103022;-70
2021/07/20 05:05:08;;;;;;;27.47;13.13;;;;;;;18.54;62.36;98809.78;125718;1095;103034;-71
2021/07/20 05:07:42;;;;;;;26.57;13.70;;;;;;;18.53;62.57;98808.10;125693;1096;102916;-71
2021/07/20 05:10:14;;;;;;;26.00;13.80;;;;;;;18.55;62.53;98812.30;125631;1095;103052;-71
2021/07/20 05:12:48;;;;;;;24.60;13.50;;;;;;;18.58;62.52;98816.48;125672;1096;102942;-70
2021/07/20 05:15:22;;;;;;;28.30;13.63;;;;;;;18.60;62.79;98814.47;125662;1096;102994;-71
2021/07/20 05:17:56;;;;;;;28.53;14.43;;;;;;;18.60;62.40;98818.02;125658;1095;102998;-70
2021/07/20 05:20:27;;;;;;;28.43;13.80;;;;;;;18.59;62.35;98819.03;125699;1095;103019;-69
2021/07/20 05:23:01;;;;;;;28.17;14.63;;;;;;;18.60;62.88;98815.32;125619;1096;103429;-70
2021/07/20 05:25:30;;;;;;;28.23;14.47;;;;;;;18.59;62.30;98824.41;125701;1096;103121;-71
2021/07/20 05:28:04;;;;;;;28.93;14.03;;;;;;;18.55;62.82;98824.91;125654;1095;103026;-70
2021/07/20 05:30:32;;;;;;;26.90;14.55;;;;;;;18.50;62.79;98828.11;125675;1095;102919;-70
2021/07/20 05:33:03;;;;;;;27.13;14.20;;;;;;;18.48;62.83;98830.13;125667;1094;103061;-71
2021/07/20 05:35:36;;;;;;;28.65;13.40;;;;;;;18.48;63.06;98840.91;125718;1096;103015;-72
2021/07/20 05:38:10;;;;;;;26.13;13.00;;;;;;;18.44;62.98;98835.03;125663;1094;103562;-71
2021/07/20 05:40:39;;;;;;;27.00;13.50;;;;;;;18.42;62.96;98844.27;126087;1096;103007;-70
2021/07/20 05:43:09;;;;;;;26.47;13.17;;;;;;;18.42;62.80;98839.73;125706;1096;103019;-70
2021/07/20 05:45:39;;;;;;;24.83;12.87;;;;;;;18.44;63.27;98839.55;125648;1096;102938;-70
2021/07/20 05:48:08;;;;;;;27.03;13.20;;;;;;;18.45;63.25;98836.71;126217;1095;103074;-69
2021/07/20 05:50:48;;;;;;;25.50;13.40;;;;;;;18.47;63.25;98835.70;126046;1095;102929;-70
2021/07/20 05:53:25;;;;;;;25.13;13.70;;;;;;;18.49;63.35;98836.38;125570;1094;103505;-72
2021/07/20 05:55:59;;;;;;;28.50;12.48;;;;;;;18.54;63.14;98831.33;126341;1095;102937;-75
2021/07/20 05:58:32;;;;;;;29.87;12.83;;;;;;;18.58;63.51;98836.20;125611;1095;102914;-70
2021/07/20 06:01:08;;;;;;;27.27;13.17;;;;;;;18.65;63.08;98846.30;125688;1096;103044;-70
2021/07/20 06:03:43;;;;;;;26.77;13.47;;;;;;;18.72;63.36;98841.92;125680;1097;103023;-72
2021/07/20 06:06:18;;;;;;;25.07;12.37;;;;;;;18.78;63.19;98843.91;125647;1093;103061;-72
2021/07/20 06:08:47;;;;;;;24.70;12.40;;;;;;;18.84;63.33;98839.70;125706;1093;102942;-71
2021/07/20 06:11:20;;;;;;;28.23;13.07;;;;;;;18.89;63.42;98840.05;125685;1092;102971;-74
2021/07/20 06:13:56;;;;;;;25.37;13.17;;;;;;;18.95;63.42;98849.28;125704;1093;102941;-73
2021/07/20 06:16:33;;;;;;;24.95;12.95;;;;;;;18.98;63.36;98849.80;125711;1093;102913;-74
2021/07/20 06:19:06;;;;;;;24.23;12.87;;;;;;;19.00;63.21;98855.86;125647;1093;103129;-73
2021/07/20 06:21:42;;;;;;;29.75;13.73;;;;;;;19.04;63.28;98851.81;125699;1096;103068;-72
2021/07/20 06:24:16;;;;;;;25.17;12.73;;;;;;;19.10;63.66;98857.53;125695;1093;103025;-71
2021/07/20 06:26:50;;;;;;;24.47;12.33;;;;;;;19.15;63.68;98855.17;125713;1092;102914;-72
2021/07/20 06:29:25;;;;;;;25.37;12.00;;;;;;;19.18;63.31;98852.13;125702;1093;103071;-70
2021/07/20 06:31:58;;;;;;;26.83;12.53;;;;;;;19.22;63.84;98852.61;125708;1093;103063;-71
2021/07/20 06:34:34;;;;;;;25.28;13.00;;;;;;;19.28;63.91;98854.63;125728;1093;102916;-71
2021/07/20 06:37:08;;;;;;;25.50;11.83;;;;;;;19.33;63.59;98855.80;125675;1093;103410;-71
2021/07/20 06:39:38;;;;;;;27.50;12.47;;;;;;;19.37;63.90;98856.28;125681;1092;103373;-70
2021/07/20 06:42:11;;;;;;;23.67;12.53;;;;;;;19.39;63.40;98862.34;125713;1093;103015;-77
2021/07/20 06:44:46;;;;;;;23.03;11.47;;;;;;;19.40;63.56;98865.88;125653;1093;103209;-72
2021/07/20 06:47:20;;;;;;;24.87;12.17;;;;;;;19.39;63.61;98858.80;125721;1092;102938;-73
2021/07/20 06:49:57;;;;;;;25.80;12.07;;;;;;;19.37;63.88;98858.98;125668;1093;103009;-73
2021/07/20 06:52:25;;;;;;;22.60;11.83;;;;;;;19.36;63.53;98851.91;125742;1093;102939;-76
2021/07/20 06:54:53;;;;;;;27.07;12.07;;;;;;;19.35;63.84;98855.62;125702;1093;103148;-75
2021/07/20 06:57:26;;;;;;;22.33;11.40;;;;;;;19.33;63.25;98849.55;125718;1093;103047;-75
2021/07/20 07:00:01;;;;;;;23.70;12.33;;;;;;;19.32;63.58;98847.88;125710;1093;103039;-76
2021/07/20 07:02:36;;;;;;;24.67;12.70;;;;;;;19.36;63.75;98848.38;125740;1093;103061;-73
2021/07/20 07:05:15;;;;;;;25.17;13.10;;;;;;;19.40;63.50;98844.30;125701;1094;103010;-71
2021/07/20 07:07:50;;;;;;;27.20;12.07;;;;;;;19.47;63.72;98843.44;125682;1093;103094;-71
2021/07/20 07:10:24;;;;;;;24.53;11.30;;;;;;;19.77;63.62;98842.78;125648;1093;103156;-72
2021/07/20 07:12:59;;;;;;;23.93;11.30;;;;;;;20.23;63.15;98837.46;125660;1094;103020;-71
2021/07/20 07:15:27;;;;;;;24.50;10.63;;;;;;;20.88;63.17;98838.99;125675;1093;103047;-72
2021/07/20 07:18:05;;;;;;;23.53;10.47;;;;;;;22.25;62.59;98842.20;125739;1093;103063;-71
2021/07/20 07:20:39;;;;;;;21.80;11.30;;;;;;;23.78;62.22;98838.06;125693;1093;102914;-72
2021/07/20 07:23:13;;;;;;;25.93;11.23;;;;;;;24.99;62.40;98832.82;125674;1097;102998;-73
2021/07/20 07:25:47;;;;;;;23.90;10.00;;;;;;;25.09;62.92;98838.67;125726;1097;102997;-72
2021/07/20 07:28:21;;;;;;;23.53;11.30;;;;;;;24.92;63.20;98834.70;125712;1097;103071;-71
2021/07/20 07:30:53;;;;;;;24.20;10.37;;;;;;;24.71;63.41;98831.15;125714;1092;103025;-71
2021/07/20 07:33:22;;;;;;;24.63;9.78;;;;;;;24.62;63.18;98837.84;125707;1096;103067;-72
2021/07/20 07:36:00;;;;;;;21.93;10.33;;;;;;;24.43;62.86;98842.22;125679;1093;103183;-71
2021/07/20 07:38:34;;;;;;;19.67;10.10;;;;;;;24.28;62.93;98832.36;125674;1093;102913;-72
2021/07/20 07:41:08;;;;;;;19.60;8.77;;;;;;;24.20;62.57;98827.97;125667;1093;102940;-73
2021/07/20 07:43:43;;;;;;;22.57;9.53;;;;;;;24.13;62.17;98831.73;125695;1093;102907;-72
2021/07/20 07:46:17;;;;;;;22.73;9.80;;;;;;;24.09;62.12;98834.00;125715;1093;102969;-72
2021/07/20 07:48:51;;;;;;;21.13;9.43;;;;;;;24.11;62.13;98836.53;125668;1093;103073;-72
2021/07/20 07:51:24;;;;;;;21.37;9.17;;;;;;;24.15;61.69;98826.93;125713;1093;102945;-72
2021/07/20 07:54:00;;;;;;;22.17;8.97;;;;;;;24.27;61.08;98830.69;125701;1093;102919;-71
2021/07/20 07:56:34;;;;;;;23.43;9.40;;;;;;;24.53;61.09;98829.88;125716;1093;103064;-72
2021/07/20 07:59:06;;;;;;;19.73;8.90;;;;;;;24.71;60.55;98835.73;125700;1093;102936;-71
2021/07/20 08:01:46;;;;;;;19.43;8.70;;;;;;;25.20;60.21;98839.89;125663;1092;103055;-71
2021/07/20 08:04:25;;;;;;;21.97;9.00;;;;;;;25.44;60.52;98843.02;125700;1093;102904;-73
2021/07/20 08:06:59;;;;;;;25.50;9.47;;;;;;;25.91;60.09;98837.37;125675;1096;103020;-69
2021/07/20 08:09:33;;;;;;;18.23;8.23;;;;;;;26.17;60.11;98832.84;125703;1093;102914;-73
2021/07/20 08:12:08;;;;;;;21.83;8.47;;;;;;;26.38;60.04;98837.10;125636;1093;102922;-71
2021/07/20 08:14:38;;;;;;;20.10;8.63;;;;;;;26.73;59.91;98839.34;125654;1095;103175;-72
2021/07/20 08:17:12;;;;;;;20.40;8.70;;;;;;;27.14;59.50;98828.92;125772;1093;102916;-71
2021/07/20 08:19:46;;;;;;;21.20;8.57;;;;;;;27.48;59.52;98821.22;125687;1092;102940;-73
2021/07/20 08:22:22;;;;;;;17.53;8.03;;;;;;;27.82;58.88;98826.27;125651;1095;102916;-74
2021/07/20 08:25:08;;;;;;;18.87;7.87;;;;;;;28.02;59.12;98822.41;125681;1093;103537;-73
2021/07/20 08:27:46;;;;;;;20.53;8.37;;;;;;;28.05;58.67;98821.95;125623;1093;103215;-71
2021/07/20 08:30:21;;;;;;;19.20;7.53;;;;;;;28.04;58.30;98818.40;125670;1093;103064;-71
2021/07/20 08:32:58;;;;;;;16.90;7.30;;;;;;;27.96;57.88;98824.19;125661;1093;102994;-74
2021/07/20 08:35:31;;;;;;;16.23;7.27;;;;;;;27.88;57.77;98824.50;125644;1093;103125;-79
2021/07/20 08:38:06;;;;;;;18.87;7.87;;;;;;;27.79;57.26;98827.55;125666;1093;103431;-79
2021/07/20 08:40:53;;;;;;;18.23;7.70;;;;;;;27.69;57.05;98823.70;125658;1091;103064;-75
2021/07/20 08:43:37;;;;;;;16.27;7.50;;;;;;;27.58;56.69;98820.67;125694;1093;102729;-74
2021/07/20 08:46:23;;;;;;;17.97;6.97;;;;;;;27.26;56.50;98822.72;125652;1093;103035;-76
2021/07/20 08:49:27;;;;;;;18.90;7.30;;;;;;;27.11;56.22;98825.80;125702;1093;103389;-78
2021/07/20 08:52:05;;;;;;;19.57;6.90;;;;;;;26.98;56.01;98829.50;125644;1093;103416;-72
2021/07/20 08:55:02;;;;;;;15.63;6.90;;;;;;;26.88;55.74;98835.48;125653;1093;102997;-71
2021/07/20 08:57:51;;;;;;;19.87;6.80;;;;;;;26.82;55.40;98834.48;125781;1093;102993;-71
2021/07/20 09:00:26;;;;;;;15.77;6.00;;;;;;;26.83;55.03;98833.43;125664;1091;103038;-71
2021/07/20 09:03:22;;;;;;;14.35;6.55;;;;;;;26.84;55.08;98831.52;125714;1092;103022;-70
2021/07/20 09:06:03;;;;;;;14.77;6.60;;;;;;;26.82;54.64;98830.91;125681;1096;103040;-70
2021/07/20 09:09:09;;;;;;;16.60;6.90;;;;;;;26.93;54.69;98826.60;125641;1095;102916;-74
2021/07/20 09:11:47;;;;;;;13.60;6.10;;;;;;;27.51;54.34;98814.45;125667;1096;103071;-73
2021/07/20 09:14:43;;;;;;;20.53;6.27;;;;;;;27.76;53.89;98813.52;125708;1095;102917;-75
2021/07/20 09:17:21;;;;;;;17.57;5.77;;;;;;;28.00;53.72;98822.66;125712;1094;102945;-70
2021/07/20 09:19:59;;;;;;;16.57;6.43;;;;;;;28.46;53.65;98816.75;125677;1096;103438;-72
2021/07/20 09:22:40;;;;;;;17.53;6.40;;;;;;;29.07;53.00;98811.08;125570;1095;102975;-72
2021/07/20 09:25:31;;;;;;;19.10;6.50;;;;;;;29.60;52.95;98808.40;125672;1096;102977;-71
2021/07/20 09:28:12;;;;;;;14.43;6.23;;;;;;;30.35;53.14;98813.94;125653;1095;103039;-71
2021/07/20 09:30:49;;;;;;;17.20;6.33;;;;;;;30.73;52.87;98806.90;125716;1095;102910;-73
2021/07/20 09:33:43;;;;;;;15.83;5.83;;;;;;;30.86;52.63;98809.27;125609;1095;102941;-75
2021/07/20 09:36:28;;;;;;;11.53;5.27;;;;;;;31.58;52.38;98803.13;125456;1094;101961;-73
2021/07/20 09:38:58;;;;;;;17.03;5.73;;;;;;;31.96;52.25;98800.53;125503;1094;102999;-76
2021/07/20 09:41:42;;;;;;;12.30;5.53;;;;;;;32.23;51.95;98800.53;125634;1095;103335;-73
2021/07/20 09:44:29;;;;;;;12.40;5.73;;;;;;;32.82;51.64;98798.80;125577;1094;103418;-70
2021/07/20 09:46:57;;;;;;;14.37;6.07;;;;;;;33.26;51.74;98797.72;125601;1096;103367;-73
2021/07/20 09:49:38;;;;;;;15.63;7.30;;;;;;;33.05;51.04;98794.84;125615;1095;103072;-72
2021/07/20 09:52:12;;;;;;;16.53;7.10;;;;;;;32.46;51.00;98795.78;125623;1095;102919;-73
2021/07/20 09:55:12;;;;;;;25.87;8.10;;;;;;;31.81;50.73;98799.27;125630;1094;103032;-72
2021/07/20 09:58:07;;;;;;;18.37;7.10;;;;;;;31.11;50.36;98794.27;125677;1095;102924;-71
2021/07/20 10:01:01;;;;;;;16.67;7.40;;;;;;;30.61;50.26;98795.17;125635;1094;103412;-73
2021/07/20 10:04:05;;;;;;;18.20;7.47;;;;;;;30.08;49.34;98795.34;125621;1094;102949;-70
2021/07/20 10:06:53;;;;;;;18.50;7.20;;;;;;;29.58;49.13;98800.41;125688;1095;102937;-73
2021/07/20 10:09:33;;;;;;;18.37;7.70;;;;;;;29.24;48.90;98798.33;125675;1095;103025;-71
2021/07/20 10:12:15;;;;;;;18.80;7.40;;;;;;;28.99;48.58;98793.13;125610;1095;103000;-70
2021/07/20 10:14:49;;;;;;;15.97;7.07;;;;;;;28.66;48.20;98794.53;125683;1095;103052;-72
2021/07/20 10:17:33;;;;;;;16.13;7.57;;;;;;;28.35;48.26;98791.88;125606;1095;103071;-72
2021/07/20 10:20:23;;;;;;;16.20;6.87;;;;;;;28.16;48.05;98793.85;125691;1095;103025;-74
2021/07/20 10:23:13;;;;;;;17.30;6.60;;;;;;;27.83;47.56;98799.77;125658;1096;103494;-74
2021/07/20 10:25:52;;;;;;;18.43;6.70;;;;;;;27.46;47.46;98798.73;125645;1095;102913;-73
2021/07/20 10:28:29;;;;;;;14.93;6.53;;;;;;;27.24;47.43;98797.55;125550;1095;102942;-76
2021/07/20 10:31:09;;;;;;;15.13;6.23;;;;;;;27.18;47.15;98793.80;125510;1094;103073;-74
2021/07/20 10:33:51;;;;;;;16.43;6.63;;;;;;;27.14;47.12;98800.78;125566;1094;102938;-72
2021/07/20 10:36:26;;;;;;;14.43;6.60;;;;;;;27.17;47.09;98798.45;125514;1094;103000;-71
2021/07/20 10:39:20;;;;;;;13.87;6.37;;;;;;;27.23;46.63;98796.69;125655;1094;103004;-70
2021/07/20 10:42:10;;;;;;;16.07;6.37;;;;;;;27.24;46.51;98792.90;125690;1095;103042;-71
2021/07/20 10:44:59;;;;;;;15.90;6.27;;;;;;;27.24;46.56;98795.63;125594;1094;103054;-70
2021/07/20 10:47:39;;;;;;;19.27;7.20;;;;;;;27.22;46.78;98789.56;125673;1096;102935;-70
2021/07/20 10:50:26;;;;;;;15.63;6.63;;;;;;;27.22;46.24;98789.56;125516;1095;103062;-73
2021/07/20 10:53:20;;;;;;;12.17;5.90;;;;;;;27.19;46.47;98787.28;125626;1095;102971;-70
2021/07/20 10:56:32;;;;;;;15.37;6.20;;;;;;;27.19;46.32;98790.86;125586;1096;103177;-70
2021/07/20 10:59:08;;;;;;;15.43;6.40;;;;;;;27.11;45.98;98801.23;125700;1096;103097;-72
2021/07/20 11:02:06;;;;;;;12.93;5.93;;;;;;;26.97;45.70;98789.63;125661;1095;102914;-73
2021/07/20 11:04:44;;;;;;;15.17;6.40;;;;;;;26.91;45.88;98791.38;125681;1095;102921;-71
2021/07/20 11:07:31;;;;;;;16.03;6.70;;;;;;;26.85;45.57;98795.00;125688;1095;102945;-73
2021/07/20 11:10:21;;;;;;;16.00;6.40;;;;;;;26.72;45.65;98796.75;125638;1095;103057;-70
2021/07/20 11:13:10;;;;;;;17.20;6.57;;;;;;;26.68;45.68;98797.43;125616;1095;103065;-74
2021/07/20 11:15:51;;;;;;;14.47;6.17;;;;;;;26.67;45.48;98793.89;125700;1094;103012;-72
2021/07/20 11:18:29;;;;;;;13.77;6.00;;;;;;;26.60;45.25;98795.83;125659;1095;102916;-72
2021/07/20 11:21:03;;;;;;;15.27;6.03;;;;;;;26.46;44.97;98800.56;125696;1096;102939;-73
2021/07/20 11:23:39;;;;;;;15.23;5.97;;;;;;;26.36;45.19;98790.14;125688;1094;103110;-71
2021/07/20 11:26:11;;;;;;;13.97;6.40;;;;;;;26.37;45.05;98797.26;125671;1094;102937;-68
2021/07/20 11:28:44;;;;;;;13.80;6.15;;;;;;;26.37;45.00;98786.35;125657;1095;102945;-72
2021/07/20 11:31:37;;;;;;;15.90;6.60;;;;;;;26.34;44.65;98788.70;125650;1094;103000;-72
2021/07/20 11:34:25;;;;;;;12.33;6.15;;;;;;;26.28;44.71;98788.52;125656;1096;102916;-72
2021/07/20 11:37:01;;;;;;;13.87;6.23;;;;;;;26.30;44.79;98783.69;125560;1096;103064;-72
2021/07/20 11:39:38;;;;;;;15.70;6.90;;;;;;;26.32;44.46;98782.63;125635;1095;103097;-71
2021/07/20 11:42:36;;;;;;;16.40;7.03;;;;;;;26.19;44.33;98780.84;125698;1095;103006;-72
2021/07/20 11:45:09;;;;;;;16.50;6.70;;;;;;;26.21;44.54;98778.73;125626;1095;102959;-73
2021/07/20 11:50:54;;;;;;;17.27;6.83;;;;;;;26.29;44.54;98767.53;126210;1097;102397;-68
2021/07/20 11:53:43;;;;;;;13.80;6.20;;;;;;;26.32;44.60;98772.55;125041;1098;103057;-69
2021/07/20 11:56:31;;;;;;;12.70;5.83;;;;;;;26.32;44.08;98761.64;125195;1100;103035;-67